AAL1875 KCLT-KBNA
Flight info
| Callsign | AAL1875 |
|---|---|
| Flight time | N/A |
| Altitude | 38000 |
| Route | BOBZY5 BOBZY BRAYN REWET EDDDY SWFFT3 |
| Aircraft | B738/M-SDE2E3FGHIRWXY/LB1 |
Departure
| Time | 2026-05-07 18:51 |
|---|---|
| Airport | Charlotte Douglas International Airport (KCLT) |
Arrival
| Time | N/A |
|---|---|
| Airport | Nashville International Airport (KBNA) |
| Time | Latitude | Longitude | Altitude | Speed | Heading |
|---|---|---|---|---|---|
| 2026-05-07 18:19 | 35.21793 | -80.94598 | 731 ft | 0 kts | 91° |
| 2026-05-07 18:39 | 35.21793 | -80.94603 | 731 ft | 2 kts | 91° |
| 2026-05-07 18:39 | 35.21793 | -80.94626 | 731 ft | 3 kts | 91° |
| 2026-05-07 18:39 | 35.21793 | -80.94650 | 731 ft | 2 kts | 90° |
| 2026-05-07 18:40 | 35.21795 | -80.94673 | 731 ft | 3 kts | 114° |
| 2026-05-07 18:40 | 35.21806 | -80.94691 | 729 ft | 3 kts | 152° |
| 2026-05-07 18:40 | 35.21824 | -80.94698 | 731 ft | 3 kts | 174° |
| 2026-05-07 18:40 | 35.21833 | -80.94699 | 731 ft | 0 kts | 177° |
| 2026-05-07 18:44 | 35.21825 | -80.94699 | 730 ft | 3 kts | 177° |
| 2026-05-07 18:44 | 35.21778 | -80.94696 | 731 ft | 9 kts | 177° |
| 2026-05-07 18:45 | 35.21719 | -80.94693 | 731 ft | 8 kts | 177° |
| 2026-05-07 18:45 | 35.21662 | -80.94690 | 731 ft | 8 kts | 185° |
| 2026-05-07 18:45 | 35.21617 | -80.94736 | 731 ft | 10 kts | 252° |
| 2026-05-07 18:45 | 35.21611 | -80.94825 | 731 ft | 11 kts | 266° |
| 2026-05-07 18:46 | 35.21599 | -80.94909 | 730 ft | 10 kts | 235° |
| 2026-05-07 18:46 | 35.21536 | -80.94925 | 732 ft | 9 kts | 176° |
| 2026-05-07 18:46 | 35.21471 | -80.94919 | 732 ft | 9 kts | 175° |
| 2026-05-07 18:46 | 35.21396 | -80.94913 | 731 ft | 13 kts | 176° |
| 2026-05-07 18:47 | 35.21291 | -80.94904 | 731 ft | 16 kts | 176° |
| 2026-05-07 18:47 | 35.21206 | -80.94901 | 731 ft | 9 kts | 195° |
| 2026-05-07 18:47 | 35.21159 | -80.94952 | 731 ft | 9 kts | 226° |
| 2026-05-07 18:47 | 35.21104 | -80.94977 | 731 ft | 9 kts | 175° |
| 2026-05-07 18:48 | 35.21039 | -80.94971 | 729 ft | 12 kts | 176° |
| 2026-05-07 18:48 | 35.20926 | -80.94961 | 724 ft | 20 kts | 176° |
| 2026-05-07 18:48 | 35.20788 | -80.94950 | 731 ft | 20 kts | 176° |
| 2026-05-07 18:48 | 35.20655 | -80.94938 | 732 ft | 19 kts | 175° |
| 2026-05-07 18:49 | 35.20526 | -80.94927 | 732 ft | 18 kts | 176° |
| 2026-05-07 18:49 | 35.20442 | -80.94922 | 732 ft | 9 kts | 189° |
| 2026-05-07 18:49 | 35.20414 | -80.94981 | 734 ft | 8 kts | 263° |
| 2026-05-07 18:49 | 35.20410 | -80.95038 | 736 ft | 5 kts | 266° |
| 2026-05-07 18:50 | 35.20408 | -80.95084 | 738 ft | 5 kts | 265° |
| 2026-05-07 18:50 | 35.20426 | -80.95120 | 738 ft | 6 kts | 355° |
| 2026-05-07 18:50 | 35.20482 | -80.95125 | 739 ft | 13 kts | 356° |
| 2026-05-07 18:50 | 35.20795 | -80.95151 | 736 ft | 81 kts | 356° |
| 2026-05-07 18:51 | 35.21574 | -80.95219 | 738 ft | 141 kts | 354° |
| 2026-05-07 18:51 | 35.22678 | -80.95325 | 1036 ft | 161 kts | 353° |
| 2026-05-07 18:51 | 35.23780 | -80.95503 | 1614 ft | 170 kts | 338° |
| 2026-05-07 18:51 | 35.24727 | -80.96294 | 2292 ft | 170 kts | 316° |
| 2026-05-07 18:52 | 35.25668 | -80.97237 | 2968 ft | 175 kts | 324° |
| 2026-05-07 18:52 | 35.26645 | -80.98067 | 3873 ft | 167 kts | 321° |
| 2026-05-07 18:52 | 35.27305 | -80.98627 | 4294 ft | 176 kts | 322° |
| 2026-05-07 18:52 | 35.28764 | -80.99879 | 4760 ft | 206 kts | 322° |
| 2026-05-07 18:53 | 35.29989 | -81.00920 | 5044 ft | 225 kts | 322° |
| 2026-05-07 18:53 | 35.31320 | -81.02059 | 5360 ft | 242 kts | 322° |
| 2026-05-07 18:53 | 35.32739 | -81.03304 | 5762 ft | 261 kts | 317° |
| 2026-05-07 18:53 | 35.33804 | -81.05105 | 6464 ft | 257 kts | 287° |
| 2026-05-07 18:54 | 35.34005 | -81.07236 | 7356 ft | 258 kts | 263° |
| 2026-05-07 18:54 | 35.33346 | -81.09249 | 8288 ft | 257 kts | 238° |
| 2026-05-07 18:54 | 35.32269 | -81.10987 | 9284 ft | 251 kts | 238° |
| 2026-05-07 18:54 | 35.31249 | -81.12741 | 10069 ft | 255 kts | 239° |
| 2026-05-07 18:55 | 35.30203 | -81.14570 | 10451 ft | 273 kts | 239° |
| 2026-05-07 18:55 | 35.29066 | -81.16558 | 10623 ft | 297 kts | 239° |
| 2026-05-07 18:55 | 35.27832 | -81.18701 | 10772 ft | 319 kts | 238° |
| 2026-05-07 18:55 | 35.26511 | -81.20977 | 10925 ft | 338 kts | 238° |
| 2026-05-07 18:56 | 35.25114 | -81.23368 | 11262 ft | 349 kts | 238° |
| 2026-05-07 18:56 | 35.23694 | -81.25792 | 11875 ft | 351 kts | 238° |
| 2026-05-07 18:56 | 35.22442 | -81.28348 | 12424 ft | 352 kts | 248° |
| 2026-05-07 18:56 | 35.21892 | -81.30212 | 12791 ft | 353 kts | 255° |
| 2026-05-07 18:57 | 35.21267 | -81.34085 | 13725 ft | 352 kts | 265° |
| 2026-05-07 18:57 | 35.21127 | -81.36977 | 14344 ft | 351 kts | 267° |
| 2026-05-07 18:57 | 35.21011 | -81.39976 | 15151 ft | 347 kts | 267° |
| 2026-05-07 18:57 | 35.20898 | -81.42909 | 15958 ft | 344 kts | 267° |
| 2026-05-07 18:58 | 35.20852 | -81.44071 | 16257 ft | 343 kts | 267° |
| 2026-05-07 18:58 | 35.20780 | -81.45886 | 16687 ft | 343 kts | 266° |
| 2026-05-07 18:58 | 35.20661 | -81.48793 | 17387 ft | 341 kts | 267° |
| 2026-05-07 18:58 | 35.20538 | -81.51677 | 18035 ft | 341 kts | 266° |
| 2026-05-07 18:59 | 35.20415 | -81.54575 | 18441 ft | 344 kts | 267° |
| 2026-05-07 18:59 | 35.20286 | -81.57530 | 18758 ft | 350 kts | 267° |
| 2026-05-07 18:59 | 35.20155 | -81.60512 | 19194 ft | 352 kts | 266° |
| 2026-05-07 18:59 | 35.20066 | -81.62529 | 19531 ft | 352 kts | 266° |
| 2026-05-07 19:00 | 35.19932 | -81.65516 | 20022 ft | 352 kts | 266° |
| 2026-05-07 19:00 | 35.19793 | -81.68475 | 20641 ft | 348 kts | 266° |
| 2026-05-07 19:00 | 35.19676 | -81.71406 | 20968 ft | 352 kts | 266° |
| 2026-05-07 19:00 | 35.19543 | -81.74449 | 21277 ft | 355 kts | 265° |
| 2026-05-07 19:01 | 35.19404 | -81.77473 | 21663 ft | 357 kts | 266° |
| 2026-05-07 19:01 | 35.19260 | -81.80459 | 22054 ft | 357 kts | 265° |
| 2026-05-07 19:01 | 35.19115 | -81.83500 | 22412 ft | 359 kts | 265° |
| 2026-05-07 19:01 | 35.18970 | -81.86555 | 22736 ft | 361 kts | 265° |
| 2026-05-07 19:02 | 35.18824 | -81.89627 | 23063 ft | 363 kts | 265° |
| 2026-05-07 19:02 | 35.18678 | -81.92718 | 23374 ft | 365 kts | 265° |
| 2026-05-07 19:02 | 35.18531 | -81.95823 | 23641 ft | 366 kts | 265° |
| 2026-05-07 19:02 | 35.18384 | -81.98908 | 23932 ft | 367 kts | 265° |
| 2026-05-07 19:03 | 35.18235 | -82.02026 | 24248 ft | 368 kts | 265° |
| 2026-05-07 19:03 | 35.18084 | -82.05145 | 24522 ft | 369 kts | 265° |
| 2026-05-07 19:03 | 35.17933 | -82.08279 | 24751 ft | 370 kts | 265° |
| 2026-05-07 19:03 | 35.17781 | -82.11423 | 24984 ft | 371 kts | 265° |
| 2026-05-07 19:04 | 35.17627 | -82.14582 | 25202 ft | 373 kts | 265° |
| 2026-05-07 19:04 | 35.17494 | -82.17746 | 25471 ft | 373 kts | 268° |
| 2026-05-07 19:04 | 35.17635 | -82.20921 | 25704 ft | 376 kts | 273° |
| 2026-05-07 19:04 | 35.18015 | -82.24091 | 25902 ft | 379 kts | 277° |
| 2026-05-07 19:05 | 35.18671 | -82.27201 | 26067 ft | 383 kts | 281° |
| 2026-05-07 19:05 | 35.19419 | -82.30309 | 26469 ft | 378 kts | 281° |
| 2026-05-07 19:05 | 35.20170 | -82.33397 | 26618 ft | 381 kts | 281° |
| 2026-05-07 19:05 | 35.20904 | -82.36520 | 26712 ft | 384 kts | 281° |
| 2026-05-07 19:06 | 35.21648 | -82.39663 | 26848 ft | 385 kts | 281° |
| 2026-05-07 19:06 | 35.23139 | -82.45928 | 27319 ft | 383 kts | 281° |
| 2026-05-07 19:06 | 35.23878 | -82.49057 | 27482 ft | 382 kts | 281° |
| 2026-05-07 19:07 | 35.24604 | -82.52133 | 27820 ft | 380 kts | 281° |
| 2026-05-07 19:07 | 35.25334 | -82.55226 | 28113 ft | 378 kts | 281° |
| 2026-05-07 19:07 | 35.26060 | -82.58313 | 28345 ft | 378 kts | 281° |
| 2026-05-07 19:07 | 35.26782 | -82.61402 | 28564 ft | 377 kts | 281° |
| 2026-05-07 19:08 | 35.27504 | -82.64486 | 28843 ft | 376 kts | 281° |
| 2026-05-07 19:08 | 35.28220 | -82.67558 | 29186 ft | 374 kts | 279° |
| 2026-05-07 19:08 | 35.28928 | -82.70604 | 29643 ft | 369 kts | 279° |
| 2026-05-07 19:08 | 35.29630 | -82.73606 | 30025 ft | 366 kts | 279° |
| 2026-05-07 19:09 | 35.30331 | -82.76606 | 30255 ft | 366 kts | 279° |
| 2026-05-07 19:09 | 35.31029 | -82.79607 | 30457 ft | 367 kts | 279° |
| 2026-05-07 19:09 | 35.31724 | -82.82603 | 30693 ft | 365 kts | 278° |
| 2026-05-07 19:09 | 35.32418 | -82.85599 | 30864 ft | 365 kts | 279° |
| 2026-05-07 19:10 | 35.33118 | -82.88579 | 31137 ft | 364 kts | 281° |
| 2026-05-07 19:10 | 35.33846 | -82.91508 | 31301 ft | 363 kts | 279° |
| 2026-05-07 19:10 | 35.34538 | -82.94469 | 31488 ft | 363 kts | 279° |
| 2026-05-07 19:10 | 35.35198 | -82.97449 | 31586 ft | 362 kts | 278° |
| 2026-05-07 19:11 | 35.35865 | -83.00420 | 31843 ft | 361 kts | 279° |
| 2026-05-07 19:11 | 35.36523 | -83.03384 | 32149 ft | 360 kts | 279° |
| 2026-05-07 19:11 | 35.37197 | -83.06335 | 32413 ft | 359 kts | 279° |
| 2026-05-07 19:11 | 35.37870 | -83.09279 | 32604 ft | 359 kts | 279° |
| 2026-05-07 19:12 | 35.38549 | -83.12210 | 32820 ft | 359 kts | 279° |
| 2026-05-07 19:12 | 35.39223 | -83.15157 | 33044 ft | 359 kts | 279° |
| 2026-05-07 19:12 | 35.39895 | -83.18097 | 33321 ft | 358 kts | 280° |
| 2026-05-07 19:12 | 35.40730 | -83.20987 | 33596 ft | 362 kts | 287° |
| 2026-05-07 19:13 | 35.41861 | -83.23714 | 33900 ft | 364 kts | 290° |
| 2026-05-07 19:13 | 35.43112 | -83.26434 | 33888 ft | 367 kts | 291° |
| 2026-05-07 19:13 | 35.46348 | -83.31412 | 33948 ft | 381 kts | 302° |
| 2026-05-07 19:14 | 35.49942 | -83.36142 | 33570 ft | 379 kts | 300° |
| 2026-05-07 19:14 | 35.51720 | -83.38464 | 34128 ft | 370 kts | 302° |
| 2026-05-07 19:14 | 35.53541 | -83.40713 | 34176 ft | 372 kts | 301° |
| 2026-05-07 19:15 | 35.55332 | -83.43009 | 34365 ft | 371 kts | 301° |
| 2026-05-07 19:15 | 35.57173 | -83.45296 | 34111 ft | 381 kts | 303° |
| 2026-05-07 19:15 | 35.58995 | -83.47639 | 34267 ft | 379 kts | 300° |
| 2026-05-07 19:15 | 35.60774 | -83.50033 | 34118 ft | 377 kts | 300° |
| 2026-05-07 19:16 | 35.64276 | -83.54809 | 34113 ft | 376 kts | 300° |
| 2026-05-07 19:16 | 35.67951 | -83.59441 | 34013 ft | 378 kts | 301° |
| 2026-05-07 19:17 | 35.71432 | -83.64164 | 34004 ft | 372 kts | 300° |
| 2026-05-07 19:17 | 35.74905 | -83.68832 | 34019 ft | 369 kts | 300° |
| 2026-05-07 19:18 | 35.78399 | -83.73415 | 34020 ft | 368 kts | 300° |
| 2026-05-07 19:18 | 35.81878 | -83.78032 | 33994 ft | 368 kts | 300° |
| 2026-05-07 19:19 | 35.85354 | -83.82661 | 33994 ft | 369 kts | 300° |
| 2026-05-07 19:19 | 35.88255 | -83.87633 | 34016 ft | 345 kts | 283° |
| 2026-05-07 19:20 | 35.89379 | -83.93275 | 34065 ft | 336 kts | 272° |
| 2026-05-07 19:20 | 35.89061 | -83.98989 | 34007 ft | 336 kts | 261° |
| 2026-05-07 19:21 | 35.88105 | -84.04638 | 33998 ft | 337 kts | 259° |
| 2026-05-07 19:21 | 35.87113 | -84.10288 | 34007 ft | 338 kts | 259° |
| 2026-05-07 19:22 | 35.86154 | -84.15921 | 34000 ft | 338 kts | 260° |
| 2026-05-07 19:22 | 35.85202 | -84.21600 | 33997 ft | 338 kts | 260° |
| 2026-05-07 19:23 | 35.84255 | -84.27283 | 33997 ft | 339 kts | 260° |
| 2026-05-07 19:23 | 35.83309 | -84.32957 | 34015 ft | 339 kts | 260° |
| 2026-05-07 19:24 | 35.82361 | -84.38635 | 34013 ft | 338 kts | 260° |
| 2026-05-07 19:24 | 35.81409 | -84.44314 | 34014 ft | 339 kts | 260° |
| 2026-05-07 19:25 | 35.80455 | -84.49994 | 34001 ft | 339 kts | 260° |
| 2026-05-07 19:25 | 35.79976 | -84.52837 | 33784 ft | 338 kts | 260° |
| 2026-05-07 19:25 | 35.79503 | -84.55636 | 33521 ft | 330 kts | 260° |
| 2026-05-07 19:26 | 35.79037 | -84.58393 | 33264 ft | 328 kts | 260° |
| 2026-05-07 19:26 | 35.78572 | -84.61145 | 33027 ft | 330 kts | 260° |
| 2026-05-07 19:26 | 35.78101 | -84.63930 | 32615 ft | 333 kts | 260° |
| 2026-05-07 19:26 | 35.77626 | -84.66729 | 31882 ft | 332 kts | 260° |
| 2026-05-07 19:27 | 35.77152 | -84.69519 | 31093 ft | 333 kts | 260° |
| 2026-05-07 19:27 | 35.76677 | -84.72311 | 30300 ft | 334 kts | 260° |
| 2026-05-07 19:27 | 35.76199 | -84.75114 | 29445 ft | 334 kts | 260° |
| 2026-05-07 19:27 | 35.75726 | -84.77881 | 28854 ft | 328 kts | 260° |
| 2026-05-07 19:28 | 35.75261 | -84.80602 | 28284 ft | 322 kts | 260° |
| 2026-05-07 19:28 | 35.74804 | -84.83270 | 27739 ft | 316 kts | 260° |
| 2026-05-07 19:28 | 35.74354 | -84.85897 | 27184 ft | 311 kts | 260° |
| 2026-05-07 19:28 | 35.73909 | -84.88487 | 26648 ft | 308 kts | 260° |
| 2026-05-07 19:29 | 35.73471 | -84.91041 | 26140 ft | 303 kts | 260° |
| 2026-05-07 19:29 | 35.73030 | -84.93594 | 25588 ft | 309 kts | 259° |
| 2026-05-07 19:29 | 35.72570 | -84.96253 | 25058 ft | 325 kts | 259° |
| 2026-05-07 19:29 | 35.72100 | -84.98993 | 24477 ft | 326 kts | 259° |
| 2026-05-07 19:30 | 35.71632 | -85.01706 | 23921 ft | 322 kts | 259° |
| 2026-05-07 19:30 | 35.71174 | -85.04386 | 23364 ft | 318 kts | 259° |
| 2026-05-07 19:30 | 35.70712 | -85.07040 | 22714 ft | 316 kts | 259° |
| 2026-05-07 19:30 | 35.70254 | -85.09668 | 22139 ft | 313 kts | 259° |
| 2026-05-07 19:31 | 35.69802 | -85.12272 | 21595 ft | 310 kts | 259° |
| 2026-05-07 19:31 | 35.69358 | -85.14822 | 21061 ft | 307 kts | 260° |
| 2026-05-07 19:31 | 35.68905 | -85.17422 | 20512 ft | 308 kts | 259° |
| 2026-05-07 19:31 | 35.68455 | -85.20007 | 20041 ft | 320 kts | 259° |
| 2026-05-07 19:32 | 35.67972 | -85.22704 | 19817 ft | 329 kts | 259° |
| 2026-05-07 19:32 | 35.67467 | -85.25458 | 19635 ft | 332 kts | 259° |
| 2026-05-07 19:32 | 35.66968 | -85.28166 | 19445 ft | 332 kts | 259° |
| 2026-05-07 19:32 | 35.66448 | -85.30979 | 19239 ft | 331 kts | 259° |
| 2026-05-07 19:33 | 35.65945 | -85.33707 | 19014 ft | 324 kts | 259° |
| 2026-05-07 19:33 | 35.65454 | -85.36363 | 18844 ft | 315 kts | 259° |
| 2026-05-07 19:33 | 35.64971 | -85.38983 | 18674 ft | 315 kts | 259° |
| 2026-05-07 19:33 | 35.64485 | -85.41622 | 18503 ft | 318 kts | 259° |
| 2026-05-07 19:34 | 35.63993 | -85.44286 | 18330 ft | 321 kts | 259° |
| 2026-05-07 19:34 | 35.63497 | -85.46970 | 18125 ft | 323 kts | 259° |
| 2026-05-07 19:34 | 35.62998 | -85.49671 | 17913 ft | 325 kts | 259° |
| 2026-05-07 19:34 | 35.62495 | -85.52381 | 17723 ft | 325 kts | 259° |
| 2026-05-07 19:35 | 35.61993 | -85.55086 | 17521 ft | 324 kts | 259° |
| 2026-05-07 19:35 | 35.61492 | -85.57781 | 17295 ft | 324 kts | 259° |
| 2026-05-07 19:35 | 35.60991 | -85.60477 | 17106 ft | 321 kts | 259° |
| 2026-05-07 19:35 | 35.60498 | -85.63117 | 16909 ft | 316 kts | 259° |
| 2026-05-07 19:36 | 35.60004 | -85.65766 | 16737 ft | 319 kts | 259° |
| 2026-05-07 19:36 | 35.59507 | -85.68428 | 16546 ft | 319 kts | 259° |
| 2026-05-07 19:36 | 35.59011 | -85.71079 | 16353 ft | 318 kts | 259° |
| 2026-05-07 19:36 | 35.58517 | -85.73722 | 16166 ft | 317 kts | 259° |
| 2026-05-07 19:37 | 35.58023 | -85.76354 | 15991 ft | 316 kts | 259° |
| 2026-05-07 19:37 | 35.57532 | -85.78978 | 15821 ft | 316 kts | 259° |
| 2026-05-07 19:37 | 35.57036 | -85.81620 | 15629 ft | 317 kts | 259° |
| 2026-05-07 19:37 | 35.56539 | -85.84260 | 15442 ft | 315 kts | 259° |
| 2026-05-07 19:38 | 35.56053 | -85.86833 | 15246 ft | 303 kts | 259° |
| 2026-05-07 19:38 | 35.55596 | -85.89309 | 15071 ft | 290 kts | 262° |
| 2026-05-07 19:38 | 35.55525 | -85.91725 | 14840 ft | 281 kts | 275° |
| 2026-05-07 19:38 | 35.55883 | -85.94068 | 14533 ft | 279 kts | 282° |
| 2026-05-07 19:39 | 35.56395 | -85.96364 | 14234 ft | 278 kts | 283° |
| 2026-05-07 19:39 | 35.56936 | -85.98634 | 13925 ft | 277 kts | 284° |
| 2026-05-07 19:39 | 35.57482 | -86.00914 | 13585 ft | 279 kts | 284° |
| 2026-05-07 19:39 | 35.57844 | -86.02437 | 13364 ft | 282 kts | 284° |
| 2026-05-07 19:40 | 35.58578 | -86.05558 | 12909 ft | 284 kts | 284° |
| 2026-05-07 19:40 | 35.59113 | -86.07850 | 12583 ft | 283 kts | 284° |
| 2026-05-07 19:40 | 35.59659 | -86.10205 | 12252 ft | 283 kts | 284° |
| 2026-05-07 19:40 | 35.60188 | -86.12499 | 11924 ft | 283 kts | 284° |
| 2026-05-07 19:41 | 35.60722 | -86.14822 | 11600 ft | 283 kts | 284° |
| 2026-05-07 19:41 | 35.61255 | -86.17147 | 11282 ft | 283 kts | 284° |
| 2026-05-07 19:41 | 35.61790 | -86.19483 | 10968 ft | 284 kts | 284° |
| 2026-05-07 19:41 | 35.62322 | -86.21808 | 10631 ft | 280 kts | 284° |
| 2026-05-07 19:42 | 35.62843 | -86.24092 | 10324 ft | 276 kts | 285° |
| 2026-05-07 19:42 | 35.63358 | -86.26351 | 9992 ft | 272 kts | 285° |
| 2026-05-07 19:42 | 35.63856 | -86.28540 | 9925 ft | 256 kts | 285° |
| 2026-05-07 19:42 | 35.64333 | -86.30634 | 9400 ft | 254 kts | 285° |
| 2026-05-07 19:43 | 35.64806 | -86.32717 | 8926 ft | 252 kts | 285° |
| 2026-05-07 19:43 | 35.65277 | -86.34791 | 8405 ft | 252 kts | 285° |
| 2026-05-07 19:43 | 35.65750 | -86.36878 | 7879 ft | 253 kts | 285° |
| 2026-05-07 19:43 | 35.66247 | -86.38925 | 7647 ft | 249 kts | 290° |
| 2026-05-07 19:44 | 35.67172 | -86.40722 | 7442 ft | 254 kts | 311° |
| 2026-05-07 19:44 | 35.68452 | -86.42234 | 7219 ft | 259 kts | 315° |
| 2026-05-07 19:44 | 35.69790 | -86.43742 | 6989 ft | 263 kts | 315° |
| 2026-05-07 19:44 | 35.71137 | -86.45262 | 6740 ft | 261 kts | 316° |
| 2026-05-07 19:45 | 35.72466 | -86.46769 | 6506 ft | 258 kts | 316° |
| 2026-05-07 19:45 | 35.73767 | -86.48257 | 6261 ft | 255 kts | 316° |
| 2026-05-07 19:45 | 35.74626 | -86.49246 | 6108 ft | 255 kts | 316° |
| 2026-05-07 19:45 | 35.76349 | -86.51252 | 5815 ft | 256 kts | 316° |
| 2026-05-07 19:46 | 35.77204 | -86.52261 | 5676 ft | 257 kts | 315° |
| 2026-05-07 19:46 | 35.78489 | -86.53795 | 5451 ft | 257 kts | 316° |
| 2026-05-07 19:46 | 35.79770 | -86.55334 | 5215 ft | 258 kts | 316° |
| 2026-05-07 19:46 | 35.81053 | -86.56891 | 4977 ft | 259 kts | 316° |
| 2026-05-07 19:47 | 35.82333 | -86.58466 | 4721 ft | 260 kts | 316° |
| 2026-05-07 19:47 | 35.83605 | -86.60042 | 4454 ft | 259 kts | 315° |
| 2026-05-07 19:47 | 35.84873 | -86.61603 | 4196 ft | 257 kts | 316° |
| 2026-05-07 19:47 | 35.86124 | -86.63161 | 3998 ft | 255 kts | 316° |
| 2026-05-07 19:48 | 35.87381 | -86.64695 | 3715 ft | 253 kts | 316° |
| 2026-05-07 19:48 | 35.88615 | -86.66234 | 3466 ft | 252 kts | 315° |
| 2026-05-07 19:48 | 35.89851 | -86.67738 | 3255 ft | 248 kts | 316° |
| 2026-05-07 19:48 | 35.91049 | -86.69218 | 3103 ft | 240 kts | 315° |
| 2026-05-07 19:49 | 35.92219 | -86.70667 | 2998 ft | 238 kts | 316° |
| 2026-05-07 19:49 | 35.93369 | -86.72092 | 3012 ft | 231 kts | 319° |
| 2026-05-07 19:49 | 35.94652 | -86.73264 | 2994 ft | 227 kts | 327° |
| 2026-05-07 19:49 | 35.95997 | -86.74139 | 2967 ft | 213 kts | 350° |
| 2026-05-07 19:50 | 35.97375 | -86.73944 | 3018 ft | 196 kts | 16° |
| 2026-05-07 19:50 | 35.98674 | -86.73514 | 2994 ft | 190 kts | 13° |
| 2026-05-07 19:50 | 35.99905 | -86.73027 | 2781 ft | 180 kts | 18° |
| 2026-05-07 19:50 | 36.01049 | -86.72512 | 2586 ft | 169 kts | 16° |
| 2026-05-07 19:51 | 36.02146 | -86.72083 | 2367 ft | 162 kts | 14° |
| 2026-05-07 19:51 | 36.03211 | -86.71665 | 2066 ft | 158 kts | 15° |
| 2026-05-07 19:51 | 36.04211 | -86.71242 | 1979 ft | 147 kts | 15° |
| 2026-05-07 19:51 | 36.05196 | -86.70897 | 1896 ft | 144 kts | 16° |
| 2026-05-07 19:52 | 36.06102 | -86.70480 | 1617 ft | 136 kts | 19° |
| 2026-05-07 19:52 | 36.06997 | -86.70129 | 1315 ft | 136 kts | 14° |
| 2026-05-07 19:52 | 36.07905 | -86.69771 | 1146 ft | 138 kts | 17° |
| 2026-05-07 19:52 | 36.08816 | -86.69395 | 986 ft | 137 kts | 15° |
| 2026-05-07 19:53 | 36.09732 | -86.69036 | 747 ft | 141 kts | 16° |
| 2026-05-07 19:53 | 36.10655 | -86.68664 | 582 ft | 138 kts | 11° |
| 2026-05-07 19:53 | 36.11133 | -86.68469 | 576 ft | 93 kts | 106° |